createdAt,value
2023-10-09T00:00:12.272Z,0
2023-10-09T00:01:16.581Z,0
2023-10-09T00:02:18.410Z,0
2023-10-09T00:03:21.344Z,0
2023-10-09T00:04:23.371Z,0
2023-10-09T00:05:24.950Z,0
2023-10-09T00:06:27.839Z,0
2023-10-09T00:07:29.494Z,0
2023-10-09T00:08:30.951Z,0
2023-10-09T00:09:32.162Z,0
2023-10-09T00:10:33.855Z,0
2023-10-09T00:11:35.262Z,0
2023-10-09T00:12:36.696Z,0
2023-10-09T00:13:38.292Z,0
2023-10-09T00:14:39.734Z,0
2023-10-09T00:15:41.212Z,0
2023-10-09T00:16:43.174Z,0
2023-10-09T00:17:45.364Z,0
2023-10-09T00:18:47.787Z,0
2023-10-09T00:19:49.088Z,0
2023-10-09T00:20:50.685Z,0
2023-10-09T00:21:52.546Z,0
2023-10-09T00:22:54.058Z,0
2023-10-09T00:23:58.501Z,0
2023-10-09T00:25:00.068Z,0
2023-10-09T00:26:01.519Z,0
2023-10-09T00:27:03.418Z,0
2023-10-09T00:28:05.391Z,0
2023-10-09T00:29:06.972Z,0
2023-10-09T00:30:09.205Z,0
2023-10-09T00:31:11.548Z,0
2023-10-09T00:32:13.138Z,0
2023-10-09T00:33:16.025Z,0
2023-10-09T00:34:17.627Z,0
2023-10-09T00:35:19.161Z,0
2023-10-09T00:36:21.322Z,0
2023-10-09T00:37:23.063Z,0
2023-10-09T00:38:24.842Z,0
2023-10-09T00:39:27.267Z,0
2023-10-09T00:40:28.889Z,0
2023-10-09T00:41:30.443Z,0
2023-10-09T00:42:32.853Z,0
2023-10-09T00:43:34.567Z,0
2023-10-09T00:44:36.112Z,0
2023-10-09T00:45:38.005Z,0
2023-10-09T00:46:40.154Z,0
2023-10-09T00:47:41.987Z,0
2023-10-09T00:48:44.400Z,0
2023-10-09T00:49:45.944Z,0
2023-10-09T00:50:47.410Z,0
2023-10-09T00:51:48.939Z,0
2023-10-09T00:52:50.737Z,0
2023-10-09T00:53:53.893Z,0
2023-10-09T00:54:55.568Z,0
2023-10-09T00:55:57.156Z,0
2023-10-09T00:56:59.129Z,0
2023-10-09T00:58:00.911Z,0
2023-10-09T00:59:02.598Z,0
2023-10-09T01:00:04.591Z,0
2023-10-09T01:01:06.416Z,0
2023-10-09T01:02:07.990Z,0
2023-10-09T01:03:10.875Z,0
2023-10-09T01:04:15.567Z,0
2023-10-09T01:05:16.975Z,0
2023-10-09T01:06:19.043Z,0
2023-10-09T01:07:20.522Z,0
2023-10-09T01:08:22.278Z,0
2023-10-09T01:09:24.628Z,0
2023-10-09T01:10:26.282Z,0
2023-10-09T01:11:27.770Z,0
2023-10-09T01:12:29.995Z,0
2023-10-09T01:13:31.580Z,0
2023-10-09T01:14:33.054Z,0
2023-10-09T01:15:35.085Z,0
2023-10-09T01:16:37.118Z,0
2023-10-09T01:17:39.507Z,0
2023-10-09T01:18:41.382Z,0
2023-10-09T01:19:43.198Z,0
2023-10-09T01:20:44.868Z,0
2023-10-09T01:21:46.355Z,0
2023-10-09T01:22:47.904Z,0
2023-10-09T01:23:49.496Z,0
2023-10-09T01:24:51.030Z,0
2023-10-09T01:25:52.512Z,0
2023-10-09T01:26:54.230Z,0
2023-10-09T01:27:55.972Z,0
2023-10-09T01:28:57.512Z,0
2023-10-09T01:29:59.467Z,0
2023-10-09T01:31:01.334Z,0
2023-10-09T01:32:03.456Z,0
2023-10-09T01:33:06.893Z,0
2023-10-09T01:34:08.813Z,0
2023-10-09T01:35:10.746Z,0
2023-10-09T01:36:12.485Z,0
2023-10-09T01:37:14.476Z,0
2023-10-09T01:38:16.009Z,0
2023-10-09T01:39:18.417Z,0
2023-10-09T01:40:19.953Z,0
2023-10-09T01:41:21.806Z,0
2023-10-09T01:42:24.454Z,0
2023-10-09T01:43:26.058Z,0
2023-10-09T01:44:27.527Z,0
2023-10-09T01:45:30.063Z,0
2023-10-09T01:46:31.557Z,0
2023-10-09T01:47:34.086Z,0
2023-10-09T01:48:36.092Z,0
2023-10-09T01:49:37.963Z,0
2023-10-09T01:50:39.672Z,0
2023-10-09T01:51:41.623Z,0
2023-10-09T01:52:43.100Z,0
2023-10-09T01:53:44.822Z,0
2023-10-09T01:54:46.565Z,0
2023-10-09T01:55:48.516Z,0
2023-10-09T01:56:50.020Z,0
2023-10-09T01:57:51.462Z,0
2023-10-09T01:58:52.976Z,0
2023-10-09T01:59:56.121Z,0
2023-10-09T02:00:59.483Z,0
2023-10-09T02:02:01.212Z,0
2023-10-09T02:03:03.915Z,0
2023-10-09T02:04:06.173Z,0
2023-10-09T02:05:07.758Z,0
2023-10-09T02:06:09.621Z,0
2023-10-09T02:07:11.119Z,0
2023-10-09T02:08:12.607Z,0
2023-10-09T02:09:14.690Z,0
2023-10-09T02:10:17.069Z,0
2023-10-09T02:11:18.853Z,0
2023-10-09T02:12:21.190Z,0
2023-10-09T02:13:22.808Z,0
2023-10-09T02:14:24.289Z,0
2023-10-09T02:15:28.576Z,0
2023-10-09T02:16:31.211Z,0
2023-10-09T02:17:33.210Z,0
2023-10-09T02:18:35.433Z,0
2023-10-09T02:19:37.083Z,0
2023-10-09T02:20:38.554Z,0
2023-10-09T02:21:40.593Z,0
2023-10-09T02:22:42.203Z,0
2023-10-09T02:23:43.840Z,0
2023-10-09T02:24:47.477Z,0
2023-10-09T02:25:49.259Z,0
2023-10-09T02:26:50.917Z,0
2023-10-09T02:27:52.880Z,0
2023-10-09T02:28:54.440Z,0
2023-10-09T02:29:56.523Z,0
2023-10-09T02:30:58.467Z,0
2023-10-09T02:32:00.071Z,0
2023-10-09T02:33:02.689Z,0
2023-10-09T02:34:04.378Z,0
2023-10-09T02:35:06.039Z,0
2023-10-09T02:36:08.421Z,0
2023-10-09T02:37:10.400Z,0
2023-10-09T02:38:12.096Z,0
2023-10-09T02:39:14.366Z,0
2023-10-09T02:40:15.874Z,0
2023-10-09T02:41:17.809Z,0
2023-10-09T02:42:20.169Z,0
2023-10-09T02:43:21.852Z,0
2023-10-09T02:44:23.623Z,0
2023-10-09T02:45:25.745Z,0
2023-10-09T02:46:27.703Z,0
2023-10-09T02:47:29.825Z,0
2023-10-09T02:48:33.514Z,0
2023-10-09T02:49:35.099Z,0
2023-10-09T02:50:36.620Z,0
2023-10-09T02:51:38.379Z,0
2023-10-09T02:52:39.948Z,0
2023-10-09T02:53:41.434Z,0
2023-10-09T02:54:43.910Z,0
2023-10-09T02:55:45.464Z,0
2023-10-09T02:56:47.286Z,0
2023-10-09T02:57:49.409Z,0
2023-10-09T02:58:51.035Z,0
2023-10-09T02:59:52.490Z,0
2023-10-09T03:00:54.681Z,0
2023-10-09T03:01:56.326Z,0
2023-10-09T03:02:59.386Z,0
2023-10-09T03:04:02.350Z,0
2023-10-09T03:05:03.807Z,0
2023-10-09T03:06:05.305Z,0
2023-10-09T03:07:07.024Z,0
2023-10-09T03:08:10.372Z,0
2023-10-09T03:09:12.319Z,0
2023-10-09T03:10:13.852Z,0
2023-10-09T03:11:15.603Z,0
2023-10-09T03:12:18.294Z,0
2023-10-09T03:13:19.920Z,0
2023-10-09T03:14:21.431Z,0
2023-10-09T03:15:24.193Z,0
2023-10-09T03:16:26.203Z,0
2023-10-09T03:17:28.047Z,0
2023-10-09T03:18:30.323Z,0
2023-10-09T03:19:31.951Z,0
2023-10-09T03:20:33.959Z,0
2023-10-09T03:21:36.700Z,0
2023-10-09T03:22:38.203Z,0
2023-10-09T03:23:39.858Z,0
2023-10-09T03:24:41.807Z,0
2023-10-09T03:25:43.266Z,0
2023-10-09T03:26:46.390Z,0
2023-10-09T03:27:48.447Z,0
2023-10-09T03:28:49.956Z,0
2023-10-09T03:29:52.289Z,0
2023-10-09T03:30:54.407Z,0
2023-10-09T03:31:55.999Z,0
2023-10-09T03:32:59.025Z,0
2023-10-09T03:34:00.670Z,0
2023-10-09T03:35:02.559Z,0
2023-10-09T03:36:04.644Z,0
2023-10-09T03:37:06.490Z,0
2023-10-09T03:38:07.986Z,0
2023-10-09T03:39:10.081Z,0
2023-10-09T03:40:12.582Z,0
2023-10-09T03:41:18.252Z,0
2023-10-09T03:42:20.416Z,0
2023-10-09T03:43:22.319Z,0
2023-10-09T03:44:24.246Z,0
2023-10-09T03:45:26.608Z,0
2023-10-09T03:46:28.974Z,0
2023-10-09T03:47:31.092Z,0
2023-10-09T03:48:33.099Z,0
2023-10-09T03:49:34.815Z,0
2023-10-09T03:50:36.308Z,0
2023-10-09T03:51:38.749Z,0
2023-10-09T03:52:40.497Z,0
2023-10-09T03:53:42.567Z,0
2023-10-09T03:54:44.595Z,0
2023-10-09T03:55:46.137Z,0
2023-10-09T03:56:47.715Z,0
2023-10-09T03:57:49.178Z,0
2023-10-09T03:58:51.133Z,0
2023-10-09T03:59:53.773Z,0
2023-10-09T04:00:56.480Z,0
2023-10-09T04:01:58.136Z,0
2023-10-09T04:03:02.199Z,0
2023-10-09T04:04:05.415Z,0
2023-10-09T04:05:07.212Z,0
2023-10-09T04:06:09.465Z,0
2023-10-09T04:07:11.011Z,0
2023-10-09T04:08:13.545Z,0
2023-10-09T04:09:15.606Z,0
2023-10-09T04:10:17.262Z,0
2023-10-09T04:11:18.768Z,0
2023-10-09T04:12:20.545Z,0
2023-10-09T04:13:22.263Z,0
2023-10-09T04:14:23.836Z,0
2023-10-09T04:15:25.986Z,0
2023-10-09T04:16:27.737Z,0
2023-10-09T04:17:29.783Z,0
2023-10-09T04:18:36.063Z,0
2023-10-09T04:19:38.215Z,0
2023-10-09T04:20:39.801Z,0
2023-10-09T04:21:41.786Z,0
2023-10-09T04:22:43.307Z,0
2023-10-09T04:23:44.784Z,0
2023-10-09T04:24:46.898Z,0
2023-10-09T04:25:48.580Z,0
2023-10-09T04:26:52.911Z,0
2023-10-09T04:27:54.428Z,0
2023-10-09T04:28:55.880Z,0
2023-10-09T04:29:57.480Z,0
2023-10-09T04:30:59.365Z,0
2023-10-09T04:32:01.090Z,0
2023-10-09T04:33:03.726Z,0
2023-10-09T04:34:05.337Z,0
2023-10-09T04:35:06.848Z,0
2023-10-09T04:36:09.167Z,0
2023-10-09T04:37:11.113Z,0
2023-10-09T04:38:12.599Z,0
2023-10-09T04:39:15.020Z,0
2023-10-09T04:40:16.620Z,0
2023-10-09T04:41:18.365Z,0
2023-10-09T04:42:20.654Z,0
2023-10-09T04:43:22.804Z,0
2023-10-09T04:44:24.739Z,0
2023-10-09T04:45:27.169Z,0
2023-10-09T04:46:29.695Z,0
2023-10-09T04:47:31.441Z,0
2023-10-09T04:48:34.123Z,0
2023-10-09T04:49:35.310Z,0
2023-10-09T04:50:36.820Z,0
2023-10-09T04:51:39.384Z,0
2023-10-09T04:52:41.129Z,0
2023-10-09T04:53:42.777Z,0
2023-10-09T04:54:44.428Z,0
2023-10-09T04:55:46.030Z,0
2023-10-09T04:56:47.769Z,0
2023-10-09T04:57:49.285Z,0
2023-10-09T04:58:50.838Z,0
2023-10-09T04:59:52.801Z,0
2023-10-09T05:00:56.318Z,0
2023-10-09T05:01:59.020Z,0.1
2023-10-09T05:03:01.746Z,0.1
2023-10-09T05:04:04.405Z,0.1
2023-10-09T05:05:06.148Z,0.2
2023-10-09T05:06:07.980Z,0.2
2023-10-09T05:07:09.516Z,0.2
2023-10-09T05:08:11.022Z,0.3
2023-10-09T05:09:14.321Z,0.3
2023-10-09T05:10:15.992Z,0.4
2023-10-09T05:11:22.748Z,0.5
2023-10-09T05:12:25.010Z,0.6
2023-10-09T05:13:26.559Z,0.7
2023-10-09T05:14:28.261Z,0.9
2023-10-09T05:15:30.591Z,1.1
2023-10-09T05:16:33.016Z,1.3
2023-10-09T05:17:34.805Z,1.6
2023-10-09T05:18:36.926Z,2
2023-10-09T05:19:38.604Z,2.6
2023-10-09T05:20:40.095Z,3.3
2023-10-09T05:21:42.120Z,4.1
2023-10-09T05:22:43.852Z,5.1
2023-10-09T05:23:45.322Z,6.1
2023-10-09T05:24:47.532Z,7.1
2023-10-09T05:25:49.016Z,8.1
2023-10-09T05:26:51.652Z,8.9
2023-10-09T05:27:53.799Z,9.5
2023-10-09T05:28:56.852Z,10.4
2023-10-09T05:29:59.225Z,11.9
2023-10-09T05:31:00.970Z,13.5
2023-10-09T05:32:03.358Z,14.8
2023-10-09T05:33:05.772Z,15.8
2023-10-09T05:34:08.513Z,16.9
2023-10-09T05:35:10.073Z,17.7
2023-10-09T05:36:12.222Z,18.9
2023-10-09T05:37:13.851Z,20.6
2023-10-09T05:38:15.427Z,22.5
2023-10-09T05:39:18.168Z,24.3
2023-10-09T05:40:20.860Z,26.5
2023-10-09T05:41:22.375Z,29.2
2023-10-09T05:42:24.309Z,32.2
2023-10-09T05:43:26.447Z,36.2
2023-10-09T05:44:27.965Z,40.7
2023-10-09T05:45:30.138Z,44.8
2023-10-09T05:46:33.158Z,48.6
2023-10-09T05:47:36.472Z,52.6
2023-10-09T05:48:39.543Z,57.2
2023-10-09T05:49:41.263Z,63.7
2023-10-09T05:50:42.707Z,71.6
2023-10-09T05:51:44.690Z,79.9
2023-10-09T05:52:47.119Z,85
2023-10-09T05:53:48.939Z,90
2023-10-09T05:54:50.741Z,94.3
2023-10-09T05:55:52.254Z,97.2
2023-10-09T05:56:53.875Z,98.6
2023-10-09T05:57:55.509Z,97.2
2023-10-09T05:58:57.190Z,95
2023-10-09T05:59:58.662Z,92.9
2023-10-09T06:01:00.544Z,92.9
2023-10-09T06:02:03.606Z,94.3
2023-10-09T06:03:07.645Z,94.3
2023-10-09T06:04:11.773Z,94.3
2023-10-09T06:05:13.393Z,97.2
2023-10-09T06:06:15.605Z,101.5
2023-10-09T06:07:18.417Z,103
2023-10-09T06:08:19.810Z,103.7
2023-10-09T06:09:22.870Z,101.5
2023-10-09T06:10:24.352Z,103.7
2023-10-09T06:11:25.862Z,109.4
2023-10-09T06:12:28.270Z,113.8
2023-10-09T06:13:29.933Z,114.5
2023-10-09T06:14:31.811Z,113
2023-10-09T06:15:34.175Z,113.8
2023-10-09T06:16:36.471Z,113.8
2023-10-09T06:17:38.698Z,113.8
2023-10-09T06:18:45.637Z,113
2023-10-09T06:19:47.468Z,119.5
2023-10-09T06:20:48.969Z,130.3
2023-10-09T06:21:51.035Z,136.1
2023-10-09T06:22:52.669Z,140.4
2023-10-09T06:23:54.202Z,150.5
2023-10-09T06:24:56.572Z,160.6
2023-10-09T06:25:58.204Z,168.5
2023-10-09T06:26:59.771Z,169.9
2023-10-09T06:28:01.692Z,172.8
2023-10-09T06:29:03.222Z,185.8
2023-10-09T06:30:05.030Z,201.6
2023-10-09T06:31:07.553Z,214.6
2023-10-09T06:32:09.072Z,246.2
2023-10-09T06:33:11.500Z,273.6
2023-10-09T06:34:15.053Z,272.2
2023-10-09T06:35:16.679Z,260.6
2023-10-09T06:36:18.777Z,252
2023-10-09T06:37:20.418Z,252
2023-10-09T06:38:22.121Z,270.7
2023-10-09T06:39:24.206Z,286.6
2023-10-09T06:40:28.319Z,292.3
2023-10-09T06:42:29.259Z,293.8
2023-10-09T06:43:30.987Z,296.6
2023-10-09T06:44:32.467Z,298.1
2023-10-09T06:45:34.894Z,292.3
2023-10-09T06:46:37.035Z,293.8
2023-10-09T06:47:38.375Z,309.6
2023-10-09T06:48:40.720Z,318.2
2023-10-09T06:49:42.631Z,311
2023-10-09T06:50:44.386Z,288
2023-10-09T06:51:46.617Z,273.6
2023-10-09T06:52:48.183Z,280.8
2023-10-09T06:53:49.363Z,280.8
2023-10-09T06:54:51.882Z,269.3
2023-10-09T06:55:53.526Z,254.9
2023-10-09T06:56:55.079Z,250.6
2023-10-09T06:57:56.598Z,239
2023-10-09T06:58:58.079Z,227.5
2023-10-09T06:59:59.590Z,214.6
2023-10-09T07:01:02.546Z,205.9
2023-10-09T07:02:04.207Z,210.2
2023-10-09T07:03:06.483Z,229
2023-10-09T07:04:09.162Z,259.2
2023-10-09T07:05:15.069Z,316.8
2023-10-09T07:06:16.439Z,380.2
2023-10-09T07:07:18.244Z,446.4
2023-10-09T07:08:20.139Z,504
2023-10-09T07:09:21.933Z,532.8
2023-10-09T07:10:23.149Z,518.4
2023-10-09T07:11:24.340Z,481
2023-10-09T07:12:26.401Z,455
2023-10-09T07:13:28.015Z,466.6
2023-10-09T07:14:29.180Z,483.8
2023-10-09T07:15:31.274Z,492.5
2023-10-09T07:16:33.363Z,532.8
2023-10-09T07:17:36.448Z,567.4
2023-10-09T07:18:38.752Z,573.1
2023-10-09T07:19:39.969Z,587.5
2023-10-09T07:20:41.526Z,564.5
2023-10-09T07:21:43.955Z,558.7
2023-10-09T07:22:46.311Z,561.6
2023-10-09T07:23:47.531Z,538.6
2023-10-09T07:24:49.182Z,541.4
2023-10-09T07:25:50.491Z,567.4
2023-10-09T07:26:51.682Z,613.4
2023-10-09T07:27:53.333Z,688.3
2023-10-09T07:28:54.516Z,771.8
2023-10-09T07:29:55.731Z,806.4
2023-10-09T07:30:57.685Z,817.9
2023-10-09T07:31:59.067Z,806.4
2023-10-09T07:33:00.707Z,812.2
2023-10-09T07:34:02.535Z,852.5
2023-10-09T07:35:04.040Z,887
2023-10-09T07:36:06.091Z,927.4
2023-10-09T07:37:07.766Z,996.5
2023-10-09T07:38:08.941Z,1221.1
2023-10-09T07:39:10.269Z,1180.8
2023-10-09T07:40:11.929Z,1031
2023-10-09T07:41:13.132Z,858.2
2023-10-09T07:42:15.853Z,633.6
2023-10-09T07:43:17.446Z,573.1
2023-10-09T07:44:19.110Z,538.6
2023-10-09T07:45:22.069Z,518.4
2023-10-09T07:46:24.561Z,506.9
2023-10-09T07:47:26.428Z,501.1
2023-10-09T07:48:33.312Z,492.5
2023-10-09T07:49:33.028Z,492.5
2023-10-09T07:50:34.639Z,504
2023-10-09T07:51:36.954Z,506.9
2023-10-09T07:52:38.688Z,512.6
2023-10-09T07:53:40.372Z,529.9
2023-10-09T07:54:42.375Z,567.4
2023-10-09T07:55:44.047Z,642.2
2023-10-09T07:56:45.594Z,722.9
2023-10-09T07:57:47.377Z,754.6
2023-10-09T07:58:48.996Z,754.6
2023-10-09T07:59:50.734Z,783.4
2023-10-09T08:00:52.825Z,869.8
2023-10-09T08:01:55.263Z,985
2023-10-09T08:02:57.542Z,1273
2023-10-09T08:04:00.258Z,1319
2023-10-09T08:05:02.642Z,1319
2023-10-09T08:06:04.251Z,1359.4
2023-10-09T08:08:40.127Z,1578.2
2023-10-09T08:09:41.851Z,1647.4
2023-10-09T08:10:43.537Z,1797.1
2023-10-09T08:11:45.065Z,1969.9
2023-10-09T08:12:47.488Z,2119.7
2023-10-09T08:13:49.152Z,2234.9
2023-10-09T08:14:50.992Z,2350.1
2023-10-09T08:15:53.869Z,2327
2023-10-09T08:16:55.493Z,2096.6
2023-10-09T08:17:57.703Z,1751
2023-10-09T08:18:59.768Z,1497.6
2023-10-09T08:20:01.334Z,1376.6
2023-10-09T08:21:03.084Z,1330.6
2023-10-09T08:22:04.976Z,1336.3
2023-10-09T08:23:06.726Z,1411.2
2023-10-09T08:24:08.866Z,1578.2
2023-10-09T08:25:10.926Z,1716.5
2023-10-09T08:26:12.530Z,1716.5
2023-10-09T08:27:14.764Z,1601.3
2023-10-09T08:28:16.658Z,1566.7
2023-10-09T08:29:18.244Z,1589.8
2023-10-09T08:30:21.057Z,1589.8
2023-10-09T08:31:22.814Z,1635.8
2023-10-09T08:35:03.929Z,1612.8
2023-10-09T08:36:07.417Z,1555.2
2023-10-09T08:37:10.366Z,1543.7
2023-10-09T08:38:13.233Z,1543.7
2023-10-09T08:39:16.148Z,1445.8
2023-10-09T08:40:17.827Z,1296
2023-10-09T08:41:20.470Z,1175
2023-10-09T08:42:22.065Z,1129
2023-10-09T08:43:24.970Z,1157.8
2023-10-09T08:44:26.750Z,1221.1
2023-10-09T08:46:12.697Z,1307.5
2023-10-09T08:47:14.509Z,1301.8
2023-10-09T08:48:17.733Z,1313.3
2023-10-09T08:49:19.356Z,1376.6
2023-10-09T08:50:21.039Z,1411.2
2023-10-09T08:51:22.627Z,1434.2
2023-10-09T08:52:26.447Z,1474.6
2023-10-09T08:53:28.018Z,1463
2023-10-09T08:54:29.837Z,1468.8
2023-10-09T08:55:32.120Z,1578.2
2023-10-09T08:56:33.725Z,1658.9
2023-10-09T08:57:36.321Z,1624.3
2023-10-09T08:58:38.765Z,1457.3
2023-10-09T08:59:48.951Z,1255.7
2023-10-09T09:00:51.537Z,1117.4
2023-10-09T09:01:54.362Z,1077.1
2023-10-09T09:02:57.458Z,1031
2023-10-09T09:03:59.856Z,967.7
2023-10-09T09:05:05.091Z,967.7
2023-10-09T09:06:06.946Z,1025.3
2023-10-09T09:07:09.646Z,1065.6
2023-10-09T09:08:11.155Z,1088.6
2023-10-09T09:09:14.083Z,1163.5
2023-10-09T09:10:16.089Z,1226.9
2023-10-09T09:11:17.849Z,1324.8
2023-10-09T09:12:20.012Z,1578.2
2023-10-09T09:13:21.506Z,1716.5
2023-10-09T09:14:23.001Z,1578.2
2023-10-09T09:15:24.837Z,1474.6
2023-10-09T09:16:27.932Z,1468.8
2023-10-09T09:17:30.836Z,1509.1
2023-10-09T09:18:33.286Z,1509.1
2023-10-09T09:19:35.550Z,1486.1
2023-10-09T09:20:37.214Z,1457.3
2023-10-09T09:21:39.643Z,1411.2
2023-10-09T09:22:42.243Z,1330.6
2023-10-09T09:23:43.905Z,1353.6
2023-10-09T09:24:45.427Z,1405.4
2023-10-09T09:25:47.784Z,1474.6
2023-10-09T09:26:49.771Z,1566.7
2023-10-09T09:27:51.360Z,1647.4
2023-10-09T09:28:53.394Z,1705
2023-10-09T09:29:55.253Z,1728
2023-10-09T09:30:57.446Z,1728
2023-10-09T09:32:01.623Z,1716.5
2023-10-09T09:33:03.868Z,1681.9
2023-10-09T09:34:05.760Z,1681.9
2023-10-09T09:35:11.088Z,1681.9
2023-10-09T09:36:13.014Z,1658.9
2023-10-09T09:37:14.557Z,1635.8
2023-10-09T09:38:16.297Z,1624.3
2023-10-09T09:39:17.805Z,1624.3
2023-10-09T09:40:19.793Z,1670.4
2023-10-09T09:41:21.354Z,1728
2023-10-09T09:42:23.528Z,1728
2023-10-09T09:43:25.768Z,1681.9
2023-10-09T09:44:27.382Z,1612.8
2023-10-09T09:45:28.855Z,1612.8
2023-10-09T09:46:31.050Z,1647.4
2023-10-09T09:47:34.517Z,1728
2023-10-09T09:48:36.879Z,1785.6
2023-10-09T09:49:39.328Z,1831.7
2023-10-09T09:50:40.976Z,1774.1
2023-10-09T09:51:42.520Z,1681.9
2023-10-09T09:52:44.831Z,1635.8
2023-10-09T09:53:46.591Z,1601.3
2023-10-09T09:54:48.091Z,1589.8
2023-10-09T09:55:50.518Z,1578.2
2023-10-09T09:56:53.121Z,1612.8
2023-10-09T09:57:54.897Z,1612.8
2023-10-09T09:58:57.064Z,1589.8
2023-10-09T09:59:58.821Z,1578.2
2023-10-09T10:01:00.908Z,1647.4
2023-10-09T10:02:03.721Z,1739.5
2023-10-09T10:03:06.325Z,1785.6
2023-10-09T10:04:08.399Z,1774.1
2023-10-09T10:05:09.900Z,1797.1
2023-10-09T10:06:11.637Z,1854.7
2023-10-09T10:07:13.144Z,1958.4
2023-10-09T10:08:15.005Z,2073.6
2023-10-09T10:09:16.887Z,2177.3
2023-10-09T10:10:18.544Z,2281
2023-10-09T10:11:20.069Z,2327
2023-10-09T10:12:21.895Z,2430.7
2023-10-09T10:13:23.552Z,2534.4
2023-10-09T10:14:25.051Z,2534.4
2023-10-09T10:15:30.133Z,2465.3
2023-10-09T10:16:34.202Z,2338.6
2023-10-09T10:17:37.473Z,2154.2
2023-10-09T10:18:39.059Z,1981.4
2023-10-09T10:19:45.373Z,1831.7
2023-10-09T10:20:46.850Z,1739.5
2023-10-09T10:21:48.532Z,1728
2023-10-09T10:22:50.798Z,1751
2023-10-09T10:23:52.277Z,1774.1
2023-10-09T10:24:54.400Z,1797.1
2023-10-09T10:25:56.456Z,1843.2
2023-10-09T10:26:58.057Z,1877.8
2023-10-09T10:27:59.684Z,1877.8
2023-10-09T10:29:01.626Z,1866.2
2023-10-09T10:30:03.231Z,1877.8
2023-10-09T10:31:05.913Z,1877.8
2023-10-09T10:32:08.068Z,1877.8
2023-10-09T10:33:10.248Z,1889.3
2023-10-09T10:34:12.573Z,1900.8
2023-10-09T10:35:14.087Z,1900.8
2023-10-09T10:36:18.051Z,1866.2
2023-10-09T10:37:19.676Z,1843.2
2023-10-09T10:38:21.174Z,1797.1
2023-10-09T10:39:23.471Z,1785.6
2023-10-09T10:40:25.020Z,1808.6
2023-10-09T10:41:26.585Z,1797.1
2023-10-09T10:42:28.122Z,1785.6
2023-10-09T10:43:30.233Z,1785.6
2023-10-09T10:44:33.608Z,1751
2023-10-09T10:45:35.558Z,1693.4
2023-10-09T10:46:38.791Z,1658.9
2023-10-09T10:47:40.501Z,1624.3
2023-10-09T10:48:42.156Z,1566.7
2023-10-09T10:49:44.560Z,1509.1
2023-10-09T10:50:46.934Z,1509.1
2023-10-09T10:51:48.555Z,1532.2
2023-10-09T10:52:51.038Z,1601.3
2023-10-09T10:53:54.067Z,1693.4
2023-10-09T10:54:55.521Z,1728
2023-10-09T10:55:58.030Z,1635.8
2023-10-09T10:57:00.095Z,1601.3
2023-10-09T10:58:01.967Z,1681.9
2023-10-09T10:59:04.587Z,1739.5
2023-10-09T11:00:06.333Z,1785.6
2023-10-09T11:01:07.868Z,1797.1
2023-10-09T11:02:10.378Z,1797.1
2023-10-09T11:03:13.775Z,1785.6
2023-10-09T11:04:18.075Z,1751
2023-10-09T11:05:21.392Z,1774.1
2023-10-09T11:06:23.394Z,1843.2
2023-10-09T11:07:25.517Z,1900.8
2023-10-09T11:08:27.159Z,1946.9
2023-10-09T11:09:54.848Z,2027.5
2023-10-09T11:10:56.976Z,2073.6
2023-10-09T11:11:58.678Z,2119.7
2023-10-09T11:13:00.253Z,2142.7
2023-10-09T11:14:02.426Z,2154.2
2023-10-09T11:15:04.336Z,2165.8
2023-10-09T11:16:05.924Z,2154.2
2023-10-09T11:17:08.425Z,2096.6
2023-10-09T11:18:11.574Z,2062.1
2023-10-09T11:19:14.034Z,2016
2023-10-09T11:20:15.661Z,1923.8
2023-10-09T11:21:17.188Z,1889.3
2023-10-09T11:22:18.654Z,1935.4
2023-10-09T11:23:20.202Z,1923.8
2023-10-09T11:24:21.788Z,1900.8
2023-10-09T11:25:23.278Z,1900.8
2023-10-09T11:26:24.827Z,1923.8
2023-10-09T11:27:29.229Z,1923.8
2023-10-09T11:28:32.927Z,1912.3
2023-10-09T11:29:34.581Z,1866.2
2023-10-09T11:30:36.632Z,1820.2
2023-10-09T11:31:41.165Z,1785.6
2023-10-09T11:32:43.338Z,1808.6
2023-10-09T11:33:44.957Z,1831.7
2023-10-09T11:34:47.103Z,1831.7
2023-10-09T11:35:48.745Z,1831.7
2023-10-09T11:36:50.230Z,1877.8
2023-10-09T11:37:52.657Z,1969.9
2023-10-09T11:38:54.241Z,2085.1
2023-10-09T11:40:00.218Z,2165.8
2023-10-09T11:41:02.318Z,2234.9
2023-10-09T11:42:04.327Z,2315.5
2023-10-09T11:43:06.007Z,2373.1
2023-10-09T11:44:08.087Z,2407.7
2023-10-09T11:45:09.786Z,2419.2
2023-10-09T11:46:11.898Z,2419.2
2023-10-09T11:47:15.083Z,2407.7
2023-10-09T11:48:16.983Z,2384.6
2023-10-09T11:49:18.474Z,2384.6
2023-10-09T11:50:21.002Z,2384.6
2023-10-09T11:51:22.494Z,2384.6
2023-10-09T11:52:24.324Z,2396.2
2023-10-09T11:53:26.434Z,2407.7
2023-10-09T11:54:30.187Z,2442.2
2023-10-09T11:55:32.699Z,2476.8
2023-10-09T11:56:34.263Z,2511.4
2023-10-09T11:57:35.790Z,2545.9
2023-10-09T11:58:37.728Z,2569
2023-10-09T11:59:40.424Z,2569
2023-10-09T12:00:42.593Z,2580.5
2023-10-09T12:01:45.121Z,2592
2023-10-09T12:02:48.284Z,2580.5
2023-10-09T12:03:50.270Z,2592
2023-10-09T12:04:53.039Z,2615
2023-10-09T12:05:54.846Z,2638.1
2023-10-09T12:06:56.475Z,2638.1
2023-10-09T12:07:58.538Z,2649.6
2023-10-09T12:09:00.279Z,2649.6
2023-10-09T12:10:01.888Z,2626.6
2023-10-09T12:11:03.864Z,2615
2023-10-09T12:12:05.622Z,2592
2023-10-09T12:13:07.103Z,2569
2023-10-09T12:14:09.230Z,2545.9
2023-10-09T12:15:10.826Z,2522.9
2023-10-09T12:16:13.193Z,2511.4
2023-10-09T12:17:15.912Z,2511.4
2023-10-09T12:18:18.309Z,2476.8
2023-10-09T12:19:19.845Z,2373.1
2023-10-09T12:20:21.338Z,2223.4
2023-10-09T12:21:22.846Z,2073.6
2023-10-09T12:22:24.434Z,2004.5
2023-10-09T12:23:25.915Z,1981.4
2023-10-09T12:24:27.436Z,1900.8
2023-10-09T12:25:28.966Z,1912.3
2023-10-09T12:26:30.602Z,1923.8
2023-10-09T12:27:32.160Z,1958.4
2023-10-09T12:28:34.474Z,2039
2023-10-09T12:29:35.778Z,1889.3
2023-10-09T12:30:37.384Z,1739.5
2023-10-09T12:31:39.482Z,1728
2023-10-09T12:32:42.017Z,1728
2023-10-09T12:33:44.452Z,1716.5
2023-10-09T12:34:46.921Z,1762.6
2023-10-09T12:35:49.154Z,1797.1
2023-10-09T12:36:50.809Z,1808.6
2023-10-09T12:37:52.952Z,1854.7
2023-10-09T12:38:54.920Z,1900.8
2023-10-09T12:39:56.541Z,1935.4
2023-10-09T12:40:58.437Z,1958.4
2023-10-09T12:42:00.240Z,1946.9
2023-10-09T12:43:01.945Z,1958.4
2023-10-09T12:44:04.318Z,1969.9
2023-10-09T12:45:05.907Z,1935.4
2023-10-09T12:46:07.411Z,1912.3
2023-10-09T12:47:09.753Z,1877.8
2023-10-09T12:48:12.572Z,1889.3
2023-10-09T12:49:14.387Z,1912.3
2023-10-09T12:50:16.448Z,1935.4
2023-10-09T12:51:18.747Z,1958.4
2023-10-09T12:52:20.397Z,1935.4
2023-10-09T12:53:21.897Z,1912.3
2023-10-09T12:54:23.417Z,1912.3
2023-10-09T12:55:25.344Z,1923.8
2023-10-09T12:56:26.848Z,1923.8
2023-10-09T12:57:28.374Z,1912.3
2023-10-09T12:58:29.831Z,1900.8
2023-10-09T12:59:31.429Z,1877.8
2023-10-09T13:00:33.237Z,1889.3
2023-10-09T13:01:35.439Z,1889.3
2023-10-09T13:02:38.002Z,1912.3
2023-10-09T13:03:41.102Z,1958.4
2023-10-09T13:04:44.445Z,1958.4
2023-10-09T13:05:46.083Z,1900.8
2023-10-09T13:06:48.548Z,1808.6
2023-10-09T13:07:50.669Z,1762.6
2023-10-09T13:08:52.318Z,1831.7
2023-10-09T13:09:54.498Z,1900.8
2023-10-09T13:10:56.897Z,1969.9
2023-10-09T13:11:58.525Z,2062.1
2023-10-09T13:13:00.210Z,2131.2
2023-10-09T13:14:02.565Z,2188.8
2023-10-09T13:15:04.431Z,2211.8
2023-10-09T13:16:06.413Z,2200.3
2023-10-09T13:17:08.719Z,2188.8
2023-10-09T13:18:11.046Z,2165.8
2023-10-09T13:19:12.870Z,2108.2
2023-10-09T13:20:15.971Z,2050.6
2023-10-09T13:21:17.593Z,1993
2023-10-09T13:22:19.098Z,1935.4
2023-10-09T13:23:20.648Z,1900.8
2023-10-09T13:24:22.426Z,1889.3
2023-10-09T13:25:37.739Z,1877.8
2023-10-09T13:26:40.122Z,1866.2
2023-10-09T13:27:41.803Z,1843.2
2023-10-09T13:28:43.709Z,1831.7
2023-10-09T13:29:45.304Z,1808.6
2023-10-09T13:30:46.967Z,1831.7
2023-10-09T13:31:49.554Z,1843.2
2023-10-09T13:32:52.217Z,1866.2
2023-10-09T13:33:54.379Z,1877.8
2023-10-09T13:34:56.943Z,1912.3
2023-10-09T13:35:59.215Z,1923.8
2023-10-09T13:37:01.720Z,1935.4
2023-10-09T13:38:03.841Z,1946.9
2023-10-09T13:39:05.615Z,1993
2023-10-09T13:40:07.529Z,2050.6
2023-10-09T13:41:09.476Z,2085.1
2023-10-09T13:42:11.059Z,2119.7
2023-10-09T13:43:14.013Z,2142.7
2023-10-09T13:44:18.282Z,2154.2
2023-10-09T13:45:19.526Z,2142.7
2023-10-09T13:46:21.573Z,2073.6
2023-10-09T13:47:24.102Z,1993
2023-10-09T13:48:26.312Z,1889.3
2023-10-09T13:49:27.903Z,1843.2
2023-10-09T13:50:29.923Z,1797.1
2023-10-09T13:51:30.839Z,1762.6
2023-10-09T13:52:33.681Z,1705
2023-10-09T13:53:36.524Z,1647.4
2023-10-09T13:54:38.889Z,1624.3
2023-10-09T13:55:41.049Z,1601.3
2023-10-09T13:56:42.707Z,1589.8
2023-10-09T13:57:45.295Z,1578.2
2023-10-09T13:58:47.383Z,1578.2
2023-10-09T13:59:48.979Z,1589.8